Time;durP1;ratioP1;P1;durP2;ratioP2;P2;SDS_P1;SDS_P2;PMS_P1;PMS_P2;Temp;Humidity;BMP_temperature;BMP_pressure;BME280_temperature;BME280_humidity;BME280_pressure;Samples;Min_cycle;Max_cycle;Signal;HPM_P1;HPM_P2
2022/01/07 00:01:30;;;;;;;17.67;5.97;;;3.90;99.90;;;;;;5079383;28;20118;-69
2022/01/07 00:03:56;;;;;;;8.60;5.20;;;3.90;99.90;;;;;;5079124;28;20240;-69
2022/01/07 00:06:22;;;;;;;12.20;5.15;;;3.80;99.90;;;;;;5072733;28;20098;-69
2022/01/07 00:08:48;;;;;;;7.88;5.72;;;3.80;99.90;;;;;;5082153;28;20444;-69
2022/01/07 00:11:14;;;;;;;13.88;5.93;;;3.80;99.90;;;;;;5077670;28;20147;-69
2022/01/07 00:13:40;;;;;;;10.35;5.70;;;3.80;99.90;;;;;;5079416;28;20037;-69
2022/01/07 00:16:06;;;;;;;9.18;5.47;;;3.80;99.90;;;;;;5081035;28;20550;-69
2022/01/07 00:18:32;;;;;;;8.07;4.90;;;3.80;99.90;;;;;;5077600;28;20043;-69
2022/01/07 00:20:58;;;;;;;12.77;6.45;;;3.80;99.90;;;;;;5082024;28;20048;-69
2022/01/07 00:23:24;;;;;;;9.68;5.22;;;3.70;99.90;;;;;;5074972;28;20047;-69
2022/01/07 00:25:50;;;;;;;10.88;5.22;;;3.70;99.90;;;;;;5076797;28;20349;-69
2022/01/07 00:28:17;;;;;;;15.48;6.20;;;3.70;99.90;;;;;;5076232;28;20045;-69
2022/01/07 00:30:43;;;;;;;8.88;6.50;;;3.70;99.90;;;;;;5071663;28;20035;-69
2022/01/07 00:33:09;;;;;;;16.55;6.00;;;3.60;99.90;;;;;;5076706;28;20039;-69
2022/01/07 00:35:35;;;;;;;11.63;5.82;;;3.60;99.90;;;;;;5073299;28;20047;-69
2022/01/07 00:38:02;;;;;;;12.63;5.97;;;3.60;99.90;;;;;;5079477;28;20047;-70
2022/01/07 00:40:28;;;;;;;9.80;4.97;;;3.60;99.90;;;;;;5079753;28;20637;-69
2022/01/07 00:42:54;;;;;;;9.05;5.25;;;3.60;99.90;;;;;;5074462;28;20044;-69
2022/01/07 00:45:22;;;;;;;11.77;5.93;;;3.50;99.90;;;;;;5081348;28;20048;-69
2022/01/07 00:47:49;;;;;;;13.15;5.35;;;3.60;99.90;;;;;;5077039;28;20042;-71
2022/01/07 00:50:18;;;;;;;11.75;5.95;;;3.60;99.90;;;;;;5079028;28;20504;-69
2022/01/07 00:52:44;;;;;;;15.98;6.22;;;3.50;99.90;;;;;;5079979;28;20051;-69
2022/01/07 00:55:12;;;;;;;12.40;5.97;;;3.60;99.90;;;;;;5073408;28;20054;-69
2022/01/07 00:57:38;;;;;;;10.82;5.75;;;3.60;99.90;;;;;;5079840;28;20405;-69
2022/01/07 01:00:10;;;;;;;12.60;6.75;;;3.60;99.90;;;;;;5078454;28;20048;-69
2022/01/07 01:02:36;;;;;;;14.82;5.65;;;3.60;99.90;;;;;;5077510;28;20109;-69
2022/01/07 01:05:05;;;;;;;12.65;6.20;;;3.60;99.90;;;;;;5079625;28;20060;-69
2022/01/07 01:07:31;;;;;;;10.55;6.03;;;3.60;99.90;;;;;;5075225;28;20037;-69
2022/01/07 01:09:57;;;;;;;14.38;6.43;;;3.60;99.90;;;;;;5079143;28;20037;-69
2022/01/07 01:12:23;;;;;;;13.55;6.68;;;3.60;99.90;;;;;;5076889;28;20074;-69
2022/01/07 01:14:48;;;;;;;13.75;7.05;;;3.50;99.90;;;;;;5074143;28;20037;-69
2022/01/07 01:17:14;;;;;;;11.43;6.47;;;3.60;99.90;;;;;;5079643;28;20138;-69
2022/01/07 01:19:40;;;;;;;10.85;6.95;;;3.50;99.90;;;;;;5076801;28;20051;-69
2022/01/07 01:22:08;;;;;;;14.48;6.35;;;3.60;99.90;;;;;;5079486;28;20393;-69
2022/01/07 01:24:34;;;;;;;10.20;6.30;;;3.50;99.90;;;;;;5077663;28;20047;-69
2022/01/07 01:27:00;;;;;;;12.70;6.43;;;3.50;99.90;;;;;;5075426;28;20028;-69
2022/01/07 01:29:26;;;;;;;19.52;8.30;;;3.60;99.90;;;;;;5079975;28;20067;-69
2022/01/07 01:31:51;;;;;;;14.63;7.47;;;3.50;99.90;;;;;;5075234;28;20044;-69
2022/01/07 01:34:17;;;;;;;15.38;7.95;;;3.60;99.90;;;;;;5078178;28;20110;-69
2022/01/07 01:36:43;;;;;;;11.48;7.43;;;3.60;99.90;;;;;;5078715;28;20043;-69
2022/01/07 01:39:12;;;;;;;20.10;7.68;;;3.50;99.90;;;;;;5078625;28;20405;-69
2022/01/07 01:41:38;;;;;;;14.75;9.10;;;3.50;99.90;;;;;;5078530;28;20044;-69
2022/01/07 01:44:04;;;;;;;14.70;8.05;;;3.50;99.90;;;;;;5077721;28;20047;-69
2022/01/07 01:46:31;;;;;;;14.25;8.23;;;3.50;99.90;;;;;;5079946;28;20106;-69
2022/01/07 01:48:57;;;;;;;16.73;8.80;;;3.50;99.90;;;;;;5064942;28;20449;-69
2022/01/07 01:51:23;;;;;;;10.55;8.07;;;3.50;99.90;;;;;;5075518;28;20038;-69
2022/01/07 01:53:49;;;;;;;22.70;8.38;;;3.50;99.90;;;;;;5078762;28;20043;-70
2022/01/07 01:56:15;;;;;;;15.10;8.55;;;3.50;99.90;;;;;;5057320;28;20039;-69
2022/01/07 01:58:41;;;;;;;13.73;7.75;;;3.50;99.90;;;;;;5078497;28;20564;-69
2022/01/07 02:01:07;;;;;;;13.02;7.82;;;3.50;99.90;;;;;;5080301;28;20645;-70
2022/01/07 02:03:33;;;;;;;13.52;8.40;;;3.50;99.90;;;;;;5075832;28;20122;-69
2022/01/07 02:05:59;;;;;;;12.25;7.85;;;3.50;99.90;;;;;;5080891;28;20040;-69
2022/01/07 02:08:24;;;;;;;18.85;8.98;;;3.50;99.90;;;;;;5075560;28;20042;-69
2022/01/07 02:10:51;;;;;;;15.77;8.15;;;3.50;99.90;;;;;;5077809;28;20044;-69
2022/01/07 02:13:18;;;;;;;13.05;8.82;;;3.50;99.90;;;;;;5077237;28;20044;-69
2022/01/07 02:15:45;;;;;;;12.50;8.00;;;3.50;99.90;;;;;;5074153;28;20044;-69
2022/01/07 02:18:11;;;;;;;13.05;9.07;;;3.50;99.90;;;;;;5082545;28;20213;-69
2022/01/07 02:20:37;;;;;;;12.32;8.93;;;3.50;99.90;;;;;;5080796;28;20044;-69
2022/01/07 02:23:03;;;;;;;13.68;8.32;;;3.50;99.90;;;;;;5082064;28;20123;-69
2022/01/07 02:25:28;;;;;;;17.20;9.95;;;3.40;99.90;;;;;;5081265;28;20064;-70
2022/01/07 02:27:55;;;;;;;15.13;9.95;;;3.40;99.90;;;;;;5076732;28;20578;-69
2022/01/07 02:30:24;;;;;;;13.05;9.48;;;3.40;99.90;;;;;;5082911;28;20037;-69
2022/01/07 02:32:50;;;;;;;16.67;11.77;;;3.40;99.90;;;;;;5081446;28;20531;-70
2022/01/07 02:35:20;;;;;;;10.05;8.32;;;3.40;99.90;;;;;;5080890;28;20048;-69
2022/01/07 02:37:46;;;;;;;11.85;8.77;;;3.30;99.90;;;;;;5082735;28;20047;-70
2022/01/07 02:40:13;;;;;;;15.38;9.02;;;3.30;99.90;;;;;;5077326;28;20059;-70
2022/01/07 02:42:40;;;;;;;9.95;8.13;;;3.20;99.90;;;;;;5083678;28;20368;-70
2022/01/07 02:45:08;;;;;;;11.80;8.48;;;3.20;99.90;;;;;;5080998;28;20123;-70
2022/01/07 02:50:17;;;;;;;14.60;9.05;;;3.20;99.90;;;;;;5079068;28;20055;-68
2022/01/07 02:52:43;;;;;;;13.48;8.57;;;3.20;99.90;;;;;;5078831;28;20044;-69
2022/01/07 02:55:10;;;;;;;11.90;7.78;;;3.20;99.90;;;;;;5079351;28;20391;-69
2022/01/07 02:57:36;;;;;;;13.93;8.90;;;3.20;99.90;;;;;;5080949;28;20140;-69
2022/01/07 03:00:03;;;;;;;12.48;8.98;;;3.20;99.90;;;;;;5078143;28;20127;-70
2022/01/07 03:02:29;;;;;;;12.25;9.60;;;3.20;99.90;;;;;;5083337;28;20048;-69
2022/01/07 03:04:55;;;;;;;11.63;8.50;;;3.10;99.90;;;;;;5078791;28;20546;-69
2022/01/07 03:07:20;;;;;;;14.57;9.50;;;3.20;99.90;;;;;;5083579;28;20126;-69
2022/01/07 03:09:46;;;;;;;21.38;10.07;;;3.20;99.90;;;;;;5082151;28;20513;-69
2022/01/07 03:12:12;;;;;;;12.85;8.82;;;3.20;99.90;;;;;;5077704;28;20440;-69
2022/01/07 03:14:38;;;;;;;11.75;9.05;;;3.20;99.90;;;;;;5082308;28;20367;-69
2022/01/07 03:17:03;;;;;;;18.80;10.50;;;3.20;99.90;;;;;;5079584;28;20458;-69
2022/01/07 03:19:29;;;;;;;14.98;10.43;;;3.20;99.90;;;;;;5079323;28;20113;-69
2022/01/07 03:21:55;;;;;;;18.45;10.70;;;3.20;99.90;;;;;;5080960;28;20401;-69
2022/01/07 03:24:21;;;;;;;17.80;10.18;;;3.20;99.90;;;;;;5078661;28;20476;-69
2022/01/07 03:26:46;;;;;;;12.25;9.73;;;3.20;99.90;;;;;;5081954;28;20046;-69
2022/01/07 03:29:13;;;;;;;14.18;10.15;;;3.20;99.90;;;;;;5080552;28;20093;-69
2022/01/07 03:31:38;;;;;;;14.52;11.00;;;3.20;99.90;;;;;;5079858;28;20040;-69
2022/01/07 03:34:04;;;;;;;13.95;11.07;;;3.20;99.90;;;;;;5082745;28;20097;-69
2022/01/07 03:36:30;;;;;;;16.63;11.20;;;3.30;99.90;;;;;;5077008;28;20545;-69
2022/01/07 03:38:57;;;;;;;14.85;9.80;;;3.30;99.90;;;;;;5081396;28;20040;-69
2022/01/07 03:41:23;;;;;;;19.60;11.13;;;3.30;99.90;;;;;;5077709;28;20097;-69
2022/01/07 03:43:49;;;;;;;14.18;9.95;;;3.30;99.90;;;;;;5080866;28;20572;-69
2022/01/07 03:46:16;;;;;;;14.90;11.05;;;3.30;99.90;;;;;;5080995;28;20310;-69
2022/01/07 03:48:41;;;;;;;14.13;9.48;;;3.30;99.90;;;;;;5078454;28;20040;-70
2022/01/07 03:51:07;;;;;;;14.40;10.18;;;3.30;99.90;;;;;;5081663;28;20546;-69
2022/01/07 03:53:33;;;;;;;14.57;10.10;;;3.40;99.90;;;;;;5080716;28;20127;-69
2022/01/07 03:55:59;;;;;;;15.50;10.80;;;3.40;99.90;;;;;;5061092;28;20171;-69
2022/01/07 03:58:26;;;;;;;19.98;11.05;;;3.40;99.90;;;;;;5082239;28;20048;-70
2022/01/07 04:00:51;;;;;;;15.95;9.88;;;3.40;99.90;;;;;;5076056;28;20453;-69
2022/01/07 04:03:18;;;;;;;12.65;9.98;;;3.40;99.90;;;;;;5081128;28;20532;-69
2022/01/07 04:05:45;;;;;;;14.55;9.95;;;3.50;99.90;;;;;;5080259;28;20048;-69
2022/01/07 04:08:11;;;;;;;14.73;10.15;;;3.50;99.90;;;;;;5078667;28;20028;-69
2022/01/07 04:10:37;;;;;;;13.32;10.68;;;3.50;99.90;;;;;;5079979;28;20048;-70
2022/01/07 04:13:04;;;;;;;14.85;10.00;;;3.50;99.90;;;;;;5078518;28;20127;-69
2022/01/07 04:15:32;;;;;;;12.40;9.73;;;3.50;99.90;;;;;;5081034;28;20040;-69
2022/01/07 04:17:59;;;;;;;13.48;9.40;;;3.50;99.90;;;;;;5080478;28;20496;-69
2022/01/07 04:20:31;;;;;;;14.32;9.45;;;3.50;99.90;;;;;;5076827;28;20471;-69
2022/01/07 04:22:57;;;;;;;14.60;10.05;;;3.50;99.90;;;;;;5082184;28;20072;-69
2022/01/07 04:25:23;;;;;;;14.38;10.52;;;3.50;99.90;;;;;;5026566;28;20508;-69
2022/01/07 04:28:00;;;;;;;14.18;10.90;;;3.50;99.90;;;;;;5079839;28;20036;-69
2022/01/07 04:30:30;;;;;;;14.60;10.00;;;3.50;99.90;;;;;;5082156;28;20396;-69
2022/01/07 04:32:57;;;;;;;19.25;11.95;;;3.50;99.90;;;;;;5076927;28;20032;-69
2022/01/07 04:35:24;;;;;;;12.88;10.02;;;3.50;99.90;;;;;;5081719;28;20454;-69
2022/01/07 04:37:51;;;;;;;13.30;10.60;;;3.50;99.90;;;;;;5079103;28;20036;-69
2022/01/07 04:40:17;;;;;;;15.65;11.82;;;3.50;99.90;;;;;;5075138;28;20036;-69
2022/01/07 04:42:44;;;;;;;14.30;10.88;;;3.50;99.90;;;;;;5079262;28;20048;-69
2022/01/07 04:45:11;;;;;;;18.15;11.77;;;3.50;99.90;;;;;;5074577;28;20158;-70
2022/01/07 04:47:37;;;;;;;19.10;12.13;;;3.50;99.90;;;;;;5080837;28;20089;-69
2022/01/07 04:50:12;;;;;;;16.67;11.20;;;3.50;99.90;;;;;;5079700;28;20097;-70
2022/01/07 04:52:40;;;;;;;19.67;11.27;;;3.50;99.90;;;;;;5076363;28;20250;-69
2022/01/07 04:55:07;;;;;;;16.13;11.30;;;3.50;99.90;;;;;;5048205;28;20044;-70
2022/01/07 04:57:33;;;;;;;11.98;9.27;;;3.50;99.90;;;;;;5076509;28;20389;-69
2022/01/07 04:59:59;;;;;;;16.02;11.75;;;3.50;99.90;;;;;;5079099;28;20036;-69
2022/01/07 05:02:27;;;;;;;16.60;11.35;;;3.50;99.90;;;;;;5078690;28;20455;-70
2022/01/07 05:04:53;;;;;;;13.52;11.23;;;3.50;99.90;;;;;;5074720;28;20049;-69
2022/01/07 05:07:19;;;;;;;13.43;11.15;;;3.50;99.90;;;;;;5081248;28;20043;-69
2022/01/07 05:09:44;;;;;;;16.50;11.82;;;3.60;99.90;;;;;;5076894;28;20051;-69
2022/01/07 05:12:10;;;;;;;16.63;11.43;;;3.60;99.90;;;;;;5060973;28;20040;-69
2022/01/07 05:14:36;;;;;;;22.33;12.00;;;3.60;99.90;;;;;;5079521;28;20040;-70
2022/01/07 05:17:02;;;;;;;16.73;10.63;;;3.60;99.90;;;;;;5076663;28;20032;-70
2022/01/07 05:19:28;;;;;;;16.38;10.05;;;3.60;99.90;;;;;;5062159;28;20364;-69
2022/01/07 05:21:54;;;;;;;14.68;10.48;;;3.60;99.90;;;;;;5077407;28;20044;-69
2022/01/07 05:24:19;;;;;;;13.85;11.32;;;3.60;99.90;;;;;;5077715;28;20024;-69
2022/01/07 05:26:45;;;;;;;14.10;10.88;;;3.60;99.90;;;;;;5078900;28;20047;-70
2022/01/07 05:29:11;;;;;;;16.85;12.65;;;3.60;99.90;;;;;;5075219;28;20041;-69
2022/01/07 05:31:37;;;;;;;16.48;12.38;;;3.70;99.90;;;;;;5082171;28;20497;-69
2022/01/07 05:34:03;;;;;;;16.30;12.35;;;3.70;99.90;;;;;;5078223;28;20658;-69
2022/01/07 05:36:28;;;;;;;17.35;12.70;;;3.70;99.90;;;;;;5079420;28;20036;-69
2022/01/07 05:38:54;;;;;;;18.08;11.70;;;3.70;99.90;;;;;;5079252;28;20110;-69
2022/01/07 05:41:20;;;;;;;15.75;12.15;;;3.70;99.90;;;;;;5074831;28;20083;-70
2022/01/07 05:43:46;;;;;;;16.98;12.55;;;3.70;99.90;;;;;;5078128;28;20451;-69
2022/01/07 05:46:14;;;;;;;24.77;12.65;;;3.70;99.90;;;;;;5077186;28;20065;-70
2022/01/07 05:48:45;;;;;;;18.20;11.90;;;3.70;99.90;;;;;;5078264;28;20490;-69
2022/01/07 05:51:11;;;;;;;16.85;13.25;;;3.70;99.90;;;;;;5079015;28;20494;-69
2022/01/07 05:53:37;;;;;;;15.85;12.07;;;3.70;99.90;;;;;;5066922;28;20052;-70
2022/01/07 05:56:04;;;;;;;15.55;12.48;;;3.70;99.90;;;;;;5081265;28;20044;-70
2022/01/07 05:58:30;;;;;;;19.63;13.27;;;3.70;99.90;;;;;;5077815;28;20121;-69
2022/01/07 06:00:56;;;;;;;19.58;13.52;;;3.70;99.90;;;;;;5078755;28;20040;-69
2022/01/07 06:03:21;;;;;;;18.80;12.90;;;3.70;99.90;;;;;;5080402;28;20403;-69
2022/01/07 06:05:47;;;;;;;20.30;13.07;;;3.70;99.90;;;;;;5077053;28;20036;-69
2022/01/07 06:08:13;;;;;;;19.35;14.20;;;3.70;99.90;;;;;;5081013;28;20086;-69
2022/01/07 06:10:39;;;;;;;19.30;13.82;;;3.70;99.90;;;;;;5078576;28;20039;-69
2022/01/07 06:13:04;;;;;;;17.73;13.23;;;3.80;99.90;;;;;;5072107;28;20045;-69
2022/01/07 06:15:30;;;;;;;20.02;14.38;;;3.80;99.90;;;;;;5080906;28;20040;-69
2022/01/07 06:17:56;;;;;;;17.92;13.43;;;3.80;99.90;;;;;;5079764;28;20036;-69
2022/01/07 06:20:22;;;;;;;21.25;13.77;;;3.80;99.90;;;;;;5081144;28;20180;-69
2022/01/07 06:22:48;;;;;;;19.20;14.43;;;3.80;99.90;;;;;;5081606;28;20038;-69
2022/01/07 06:25:14;;;;;;;21.23;15.07;;;3.80;99.90;;;;;;5076075;28;20039;-70
2022/01/07 06:27:40;;;;;;;21.58;15.23;;;3.90;99.90;;;;;;5079588;28;20048;-70
2022/01/07 06:30:07;;;;;;;17.45;14.15;;;3.90;99.90;;;;;;5071888;28;20567;-69
2022/01/07 06:32:33;;;;;;;21.10;14.60;;;3.90;99.90;;;;;;5080663;28;20476;-69
2022/01/07 06:34:59;;;;;;;21.02;15.40;;;4.00;99.90;;;;;;5076530;28;20046;-69
2022/01/07 06:37:25;;;;;;;19.90;13.70;;;4.00;99.90;;;;;;5077031;28;20044;-69
2022/01/07 06:39:51;;;;;;;20.00;14.10;;;4.00;99.90;;;;;;5073168;28;20093;-69
2022/01/07 06:42:17;;;;;;;25.10;15.73;;;4.00;99.90;;;;;;5068543;28;20565;-69
2022/01/07 06:44:44;;;;;;;20.63;14.80;;;4.00;99.90;;;;;;5046858;28;20096;-69
2022/01/07 06:47:09;;;;;;;19.80;13.57;;;4.10;99.90;;;;;;5078809;28;20085;-69
2022/01/07 06:49:36;;;;;;;20.10;14.15;;;4.10;99.90;;;;;;5077316;28;20043;-69
2022/01/07 06:52:02;;;;;;;18.75;14.48;;;4.10;99.90;;;;;;5078387;28;20503;-69
2022/01/07 06:54:28;;;;;;;25.17;15.00;;;4.10;99.90;;;;;;5076211;28;20044;-69
2022/01/07 06:56:54;;;;;;;26.02;15.18;;;4.10;99.90;;;;;;5079097;28;20050;-70
2022/01/07 06:59:19;;;;;;;22.52;15.77;;;4.20;99.90;;;;;;5077925;28;20130;-70
2022/01/07 07:01:49;;;;;;;27.77;16.70;;;4.20;99.90;;;;;;5080325;28;20131;-70
2022/01/07 07:04:16;;;;;;;25.13;14.75;;;4.20;99.90;;;;;;5080482;28;20051;-70
2022/01/07 07:06:42;;;;;;;24.02;14.80;;;4.20;99.90;;;;;;5073123;28;20609;-70
2022/01/07 07:09:08;;;;;;;19.40;14.70;;;4.20;99.90;;;;;;5069804;28;20032;-70
2022/01/07 07:11:34;;;;;;;23.02;14.25;;;4.30;99.90;;;;;;5072557;28;20047;-70
2022/01/07 07:14:00;;;;;;;21.75;14.43;;;4.20;99.90;;;;;;5059498;28;20230;-70
2022/01/07 07:16:26;;;;;;;21.58;15.77;;;4.20;99.90;;;;;;5078701;28;20049;-70
2022/01/07 07:18:52;;;;;;;19.38;15.18;;;4.20;99.90;;;;;;5076557;28;20523;-70
2022/01/07 07:21:18;;;;;;;23.33;15.25;;;4.20;99.90;;;;;;5078557;28;20043;-70
2022/01/07 07:23:44;;;;;;;20.08;14.43;;;4.30;99.90;;;;;;5075678;28;20504;-70
2022/01/07 07:26:10;;;;;;;20.95;15.82;;;4.30;99.90;;;;;;5076087;28;20063;-70
2022/01/07 07:28:37;;;;;;;18.98;15.43;;;4.30;99.90;;;;;;5058328;28;20061;-70
2022/01/07 07:31:06;;;;;;;21.70;15.48;;;4.30;99.90;;;;;;5075440;28;20051;-71
2022/01/07 07:33:55;;;;;;;24.88;16.33;;;4.20;99.90;;;;;;5078708;28;20040;-70
2022/01/07 07:36:27;;;;;;;23.88;15.82;;;4.30;99.90;;;;;;5072263;28;20052;-70
2022/01/07 07:39:09;;;;;;;24.73;16.83;;;4.30;99.90;;;;;;5073903;28;20036;-70
2022/01/07 07:41:37;;;;;;;24.17;15.50;;;4.20;99.90;;;;;;5075284;28;20098;-70
2022/01/07 07:44:04;;;;;;;24.52;15.50;;;4.30;99.90;;;;;;5074703;28;20069;-71
2022/01/07 07:46:32;;;;;;;29.33;17.23;;;4.20;99.90;;;;;;5071168;28;20570;-70
2022/01/07 07:49:00;;;;;;;29.30;16.55;;;4.20;99.90;;;;;;5073993;28;20052;-70
2022/01/07 07:51:26;;;;;;;23.45;16.08;;;4.20;99.90;;;;;;5068180;28;20086;-70
2022/01/07 07:53:52;;;;;;;25.45;16.73;;;4.20;99.90;;;;;;5080768;28;20493;-70
2022/01/07 07:56:19;;;;;;;27.35;15.75;;;4.20;99.90;;;;;;5071205;28;20040;-70
2022/01/07 07:58:45;;;;;;;25.40;16.35;;;4.20;99.90;;;;;;5077116;28;20544;-70
2022/01/07 08:01:12;;;;;;;27.13;16.13;;;4.20;99.90;;;;;;5077783;28;20123;-70
2022/01/07 08:03:38;;;;;;;22.50;14.90;;;4.30;99.90;;;;;;5073227;28;20086;-70
2022/01/07 08:06:05;;;;;;;21.55;14.65;;;4.30;99.90;;;;;;5079832;28;20052;-70
2022/01/07 08:08:33;;;;;;;22.77;15.25;;;4.20;99.90;;;;;;5075536;28;20278;-70
2022/01/07 08:11:03;;;;;;;25.52;15.50;;;4.30;99.90;;;;;;5074562;28;20042;-70
2022/01/07 08:15:58;;;;;;;21.80;15.02;;;4.30;99.90;;;;;;5075609;28;20123;-70
2022/01/07 08:16:19;;;;;;;25.50;16.45;;;4.30;99.90;;;;;;5074606;28;20032;-70
2022/01/07 08:18:53;;;;;;;27.23;16.50;;;4.40;99.90;;;;;;5077338;28;20062;-70
2022/01/07 08:21:20;;;;;;;32.40;17.17;;;4.40;99.90;;;;;;5078420;28;20055;-70
2022/01/07 08:23:46;;;;;;;25.15;16.50;;;4.40;99.90;;;;;;5080862;28;20043;-70
2022/01/07 08:26:15;;;;;;;26.08;16.02;;;4.40;99.90;;;;;;5079308;28;20042;-70
2022/01/07 08:28:49;;;;;;;23.10;16.98;;;4.40;99.90;;;;;;5077059;28;20441;-70
2022/01/07 08:36:28;;;;;;;28.40;16.75;;;4.40;99.90;;;;;;5073476;28;20108;-70
2022/01/07 08:38:55;;;;;;;22.02;16.02;;;4.40;99.90;;;;;;5077743;28;20085;-70
2022/01/07 08:41:25;;;;;;;20.23;16.42;;;4.40;99.90;;;;;;5073349;28;20115;-70
2022/01/07 08:43:52;;;;;;;24.23;15.45;;;4.50;99.90;;;;;;5068729;28;20044;-70
2022/01/07 08:46:17;;;;;;;24.63;15.80;;;4.50;99.90;;;;;;5076987;28;20044;-70
2022/01/07 08:48:43;;;;;;;40.20;18.02;;;4.50;99.90;;;;;;5076215;28;20319;-70
2022/01/07 08:51:10;;;;;;;28.90;18.63;;;4.50;99.90;;;;;;5078111;28;20117;-70
2022/01/07 08:53:36;;;;;;;24.42;16.45;;;4.50;99.90;;;;;;5077670;28;20044;-70
2022/01/07 08:56:03;;;;;;;39.83;16.20;;;4.50;99.90;;;;;;5076986;28;20282;-70
2022/01/07 08:58:29;;;;;;;29.10;15.35;;;4.50;99.90;;;;;;5080349;28;20048;-70
2022/01/07 09:00:58;;;;;;;25.25;15.07;;;4.60;99.90;;;;;;5074904;28;20230;-70
2022/01/07 09:03:24;;;;;;;26.83;17.83;;;4.50;99.90;;;;;;5078039;28;20078;-70
2022/01/07 09:05:51;;;;;;;34.17;15.32;;;4.60;99.90;;;;;;5080068;28;20051;-70
2022/01/07 09:08:17;;;;;;;23.35;13.98;;;4.60;99.90;;;;;;5076495;28;20472;-71
2022/01/07 09:10:44;;;;;;;27.45;16.00;;;4.60;99.90;;;;;;5079814;28;20060;-70
2022/01/07 09:13:11;;;;;;;24.83;16.27;;;4.60;99.90;;;;;;5076316;28;20039;-70
2022/01/07 09:15:38;;;;;;;23.85;15.90;;;4.60;99.90;;;;;;5079057;28;20570;-70
2022/01/07 09:18:11;;;;;;;26.92;16.77;;;4.70;99.90;;;;;;5078324;28;20043;-70
2022/01/07 09:20:43;;;;;;;26.73;16.58;;;4.70;99.90;;;;;;5065327;28;20509;-70
2022/01/07 09:23:10;;;;;;;27.55;17.20;;;4.70;99.90;;;;;;5080014;28;20534;-70
2022/01/07 09:25:38;;;;;;;26.65;17.52;;;4.70;99.90;;;;;;5079247;28;20489;-70
2022/01/07 09:28:05;;;;;;;24.10;15.27;;;4.70;99.90;;;;;;5076104;28;20458;-70
2022/01/07 09:30:32;;;;;;;24.80;17.35;;;4.70;99.90;;;;;;5079192;28;20078;-69
2022/01/07 09:32:58;;;;;;;23.95;15.90;;;4.70;99.90;;;;;;5065664;28;20512;-70
2022/01/07 09:35:24;;;;;;;27.25;14.55;;;4.70;99.90;;;;;;5080518;28;20044;-70
2022/01/07 09:37:50;;;;;;;22.25;13.05;;;4.70;99.90;;;;;;5075562;28;20478;-70
2022/01/07 09:40:17;;;;;;;17.58;11.07;;;4.70;99.90;;;;;;5075519;28;20068;-70
2022/01/07 09:42:59;;;;;;;19.90;9.32;;;4.70;99.90;;;;;;5079558;28;20125;-70
2022/01/07 09:45:26;;;;;;;14.10;10.13;;;4.80;99.90;;;;;;5078409;28;20043;-70
2022/01/07 09:47:53;;;;;;;11.57;8.18;;;4.80;99.90;;;;;;5079853;28;20035;-70
2022/01/07 09:50:19;;;;;;;17.10;8.93;;;4.90;99.90;;;;;;5077105;28;20553;-70
2022/01/07 09:52:45;;;;;;;12.90;9.02;;;4.80;99.90;;;;;;5068800;28;20775;-70
2022/01/07 09:55:11;;;;;;;16.70;9.68;;;4.90;99.90;;;;;;5071074;28;20134;-70
2022/01/07 09:57:37;;;;;;;15.82;9.93;;;4.90;99.90;;;;;;5068990;28;20065;-70
2022/01/07 10:00:05;;;;;;;16.45;11.57;;;4.80;99.90;;;;;;5071599;28;20497;-70
2022/01/07 10:02:31;;;;;;;19.05;11.57;;;4.80;99.90;;;;;;5075291;28;20040;-70
2022/01/07 10:04:57;;;;;;;19.08;12.35;;;4.90;99.90;;;;;;5072990;28;20469;-70
2022/01/07 10:07:25;;;;;;;23.25;11.35;;;4.90;99.90;;;;;;5078654;28;20093;-70
2022/01/07 10:10:06;;;;;;;14.88;10.68;;;5.00;99.90;;;;;;5075905;28;20075;-70
2022/01/07 10:12:55;;;;;;;15.65;9.77;;;5.00;99.90;;;;;;5071264;28;20040;-69
2022/01/07 10:15:29;;;;;;;14.43;7.57;;;5.00;99.90;;;;;;5067220;28;20044;-70
2022/01/07 10:18:05;;;;;;;10.52;6.50;;;5.00;99.90;;;;;;5067605;28;20040;-71
2022/01/07 10:20:34;;;;;;;13.90;5.60;;;5.00;99.90;;;;;;5069116;28;20040;-70
2022/01/07 10:23:04;;;;;;;8.70;5.32;;;5.10;99.90;;;;;;5069229;28;20055;-70
2022/01/07 10:25:37;;;;;;;9.50;4.45;;;5.20;99.90;;;;;;5067858;28;20035;-70
2022/01/07 10:28:06;;;;;;;9.65;4.65;;;5.30;99.90;;;;;;5071912;28;20051;-70
2022/01/07 10:30:38;;;;;;;10.10;5.90;;;5.30;99.90;;;;;;5065098;28;20059;-70
2022/01/07 10:33:23;;;;;;;9.15;4.93;;;5.40;99.90;;;;;;5066572;28;20094;-70
2022/01/07 10:35:56;;;;;;;12.27;5.18;;;5.30;99.90;;;;;;5071324;28;20044;-70
2022/01/07 10:38:27;;;;;;;9.27;5.75;;;5.30;99.90;;;;;;5067328;28;20234;-70
2022/01/07 10:40:59;;;;;;;10.30;6.13;;;5.30;99.90;;;;;;5077602;28;20409;-70
2022/01/07 10:43:32;;;;;;;11.10;6.53;;;5.40;99.90;;;;;;5072636;28;20223;-70
2022/01/07 10:46:08;;;;;;;13.35;6.63;;;5.40;99.90;;;;;;5077753;28;20045;-70
2022/01/07 10:48:55;;;;;;;15.32;7.28;;;5.50;99.90;;;;;;5076397;28;20044;-70
2022/01/07 10:51:28;;;;;;;15.75;6.90;;;5.60;99.90;;;;;;5072856;28;20062;-70
2022/01/07 10:53:56;;;;;;;12.55;7.30;;;5.60;99.90;;;;;;5079324;28;20048;-70
2022/01/07 10:56:32;;;;;;;11.55;6.60;;;5.70;99.90;;;;;;5076165;28;20436;-70
2022/01/07 10:59:04;;;;;;;15.43;7.30;;;5.80;99.90;;;;;;5075326;28;20040;-70
2022/01/07 11:01:39;;;;;;;12.47;7.17;;;5.90;99.90;;;;;;5082519;28;20372;-70
2022/01/07 11:04:08;;;;;;;15.45;7.00;;;6.00;99.90;;;;;;5073515;28;20056;-70
2022/01/07 11:06:35;;;;;;;18.20;7.68;;;6.10;99.90;;;;;;5078154;28;20094;-70
2022/01/07 11:09:03;;;;;;;16.23;7.95;;;6.10;99.90;;;;;;5078309;28;20116;-70
2022/01/07 11:11:30;;;;;;;11.60;6.70;;;6.20;99.90;;;;;;5073562;28;20076;-70
2022/01/07 11:14:04;;;;;;;13.88;6.75;;;6.40;99.90;;;;;;5080494;28;20040;-70
2022/01/07 11:16:30;;;;;;;16.90;7.00;;;6.50;99.90;;;;;;5080559;28;20040;-70
2022/01/07 11:18:57;;;;;;;11.68;6.32;;;6.70;99.90;;;;;;5077645;28;20444;-70
2022/01/07 11:21:24;;;;;;;15.57;6.15;;;7.00;99.90;;;;;;5075308;28;20056;-70
2022/01/07 11:23:50;;;;;;;9.60;5.75;;;7.30;99.90;;;;;;5060949;28;20569;-71
2022/01/07 11:26:16;;;;;;;9.63;6.10;;;7.40;99.90;;;;;;5079414;28;20036;-71
2022/01/07 11:29:01;;;;;;;13.10;8.15;;;7.50;99.90;;;;;;5077723;28;20048;-71
2022/01/07 11:31:28;;;;;;;15.25;8.02;;;7.50;99.90;;;;;;5074051;28;20520;-70
2022/01/07 11:34:18;;;;;;;11.35;8.50;;;7.50;99.90;;;;;;5082318;28;20044;-70
2022/01/07 11:36:45;;;;;;;14.57;8.73;;;7.50;99.90;;;;;;5078560;28;20048;-71
2022/01/07 11:39:11;;;;;;;14.75;8.57;;;7.30;99.90;;;;;;5075197;28;20048;-71
2022/01/07 11:41:56;;;;;;;20.98;8.32;;;7.10;99.90;;;;;;5077792;28;20120;-71
2022/01/07 11:44:27;;;;;;;19.08;7.60;;;6.90;99.90;;;;;;5075478;28;20040;-71
2022/01/07 11:47:19;;;;;;;13.85;6.43;;;6.70;99.90;;;;;;5079885;28;20044;-72
2022/01/07 11:49:45;;;;;;;9.88;5.35;;;6.60;99.90;;;;;;5081364;28;20507;-71
2022/01/07 11:52:30;;;;;;;12.20;5.65;;;6.50;99.90;;;;;;5077267;28;20151;-71
2022/01/07 11:55:22;;;;;;;14.57;7.65;;;6.40;99.90;;;;;;5069364;28;20458;-71
2022/01/07 11:57:54;;;;;;;13.20;7.00;;;6.30;99.90;;;;;;5081506;28;20036;-71
2022/01/07 12:00:48;;;;;;;15.70;6.18;;;6.20;99.90;;;;;;5077024;28;20047;-71
2022/01/07 12:03:28;;;;;;;12.85;5.90;;;6.30;99.90;;;;;;5078306;28;20134;-70
2022/01/07 12:05:54;;;;;;;12.38;7.70;;;6.20;99.90;;;;;;5065101;28;20063;-71
2022/01/07 12:08:19;;;;;;;11.90;8.48;;;6.40;99.90;;;;;;5078587;28;20302;-71
2022/01/07 12:10:45;;;;;;;12.60;7.43;;;6.90;99.90;;;;;;5078163;28;20036;-71
2022/01/07 12:13:11;;;;;;;13.13;8.02;;;7.50;99.90;;;;;;5079472;28;20138;-71
2022/01/07 12:15:39;;;;;;;16.55;7.15;;;8.40;99.90;;;;;;5076198;28;20040;-71
2022/01/07 12:18:09;;;;;;;12.55;6.53;;;8.70;99.90;;;;;;5079934;28;20155;-71
2022/01/07 12:20:50;;;;;;;10.13;5.35;;;8.90;99.90;;;;;;5073463;28;20509;-71
2022/01/07 12:23:22;;;;;;;12.82;5.13;;;9.50;99.90;;;;;;5078593;28;20229;-70
2022/01/07 12:25:50;;;;;;;8.95;4.45;;;10.20;99.90;;;;;;5080628;28;20583;-71
2022/01/07 12:28:16;;;;;;;5.97;2.80;;;10.80;99.90;;;;;;5072848;28;20197;-70
2022/01/07 12:30:43;;;;;;;8.10;2.42;;;10.70;99.90;;;;;;5079362;28;20529;-71
2022/01/07 12:33:10;;;;;;;5.85;2.40;;;10.80;99.90;;;;;;5076246;28;20043;-70
2022/01/07 12:35:37;;;;;;;5.97;1.80;;;11.10;99.90;;;;;;5077583;28;20141;-70
2022/01/07 12:38:19;;;;;;;5.10;1.90;;;11.40;98.30;;;;;;5078413;28;20058;-70
2022/01/07 12:40:52;;;;;;;5.05;2.08;;;11.10;82.50;;;;;;5075771;28;20033;-70
2022/01/07 12:43:28;;;;;;;7.32;2.38;;;10.90;92.40;;;;;;5079383;28;20044;-70
2022/01/07 12:46:03;;;;;;;8.07;2.45;;;10.50;93.60;;;;;;5079614;28;20047;-71
2022/01/07 12:48:31;;;;;;;7.53;2.10;;;10.40;93.10;;;;;;5076275;28;20065;-70
2022/01/07 12:51:01;;;;;;;7.03;2.55;;;10.40;95.30;;;;;;5079416;28;20032;-70
2022/01/07 12:53:27;;;;;;;8.00;2.05;;;10.60;94.70;;;;;;5076576;28;20043;-70
2022/01/07 12:55:52;;;;;;;11.70;2.83;;;10.60;95.60;;;;;;5077210;28;20116;-70